Bend, Texas
Current Conditions -  °F | °C
As of 11:15 AM on Friday 31 Oct 2014 (Local Time) from KLZZ Reporting Station
Clear Clear  
Wind Chill: 64°   Ceiling: Unl
Heat Index: 64°   Visibility: 10mi
Dew Point: 44°   Wind: 12mph
Humidity: 49%   Direction: 360°N
Pressure: 30.33"   Gusts: 18mph
Location:  31.1°N, 98.51°W
Report Text: KLZZ 311615Z AUTO 36010G16KT 10SM CLR 18/07 A3033 RMK AO2 T01770068
Loading
Personal Weather Stations






























Interactive Weather Map
Tropical Storm Tracking
New forecast layout! Learn more

10-Day Weather Forecast

Advertisements
Track Severe Weather on mobile